createdAt,value
2018-09-02T00:01:43.977Z,16.59
2018-09-02T00:04:14.928Z,16.57
2018-09-02T00:06:45.901Z,16.52
2018-09-02T00:09:16.593Z,16.55
2018-09-02T00:11:47.560Z,16.61
2018-09-02T00:14:18.845Z,16.57
2018-09-02T00:16:49.754Z,16.62
2018-09-02T00:19:20.538Z,16.61
2018-09-02T00:21:52.420Z,16.51
2018-09-02T00:24:22.759Z,16.58
2018-09-02T00:26:53.629Z,16.63
2018-09-02T00:29:24.398Z,16.60
2018-09-02T00:33:19.396Z,16.59
2018-09-02T00:35:49.324Z,16.67
2018-09-02T00:38:19.068Z,16.70
2018-09-02T00:40:49.040Z,16.75
2018-09-02T00:43:19.038Z,16.77
2018-09-02T00:45:54.152Z,16.76
2018-09-02T00:48:24.092Z,16.77
2018-09-02T00:50:53.891Z,16.80
2018-09-02T00:53:23.912Z,16.80
2018-09-02T00:55:54.038Z,16.83
2018-09-02T00:58:24.018Z,16.86
2018-09-02T01:00:53.797Z,16.88
2018-09-02T01:03:23.844Z,16.91
2018-09-02T01:05:53.776Z,16.92
2018-09-02T01:08:23.732Z,16.96
2018-09-02T01:10:54.093Z,16.97
2018-09-02T01:13:23.902Z,17.00
2018-09-02T01:15:53.801Z,17.01
2018-09-02T01:18:23.837Z,17.03
2018-09-02T01:20:53.697Z,17.03
2018-09-02T01:23:23.892Z,17.04
2018-09-02T01:25:53.725Z,17.04
2018-09-02T01:28:23.804Z,17.05
2018-09-02T01:30:53.850Z,17.06
2018-09-02T01:33:23.724Z,17.06
2018-09-02T01:35:53.989Z,17.07
2018-09-02T01:38:23.740Z,17.06
2018-09-02T01:40:53.820Z,17.08
2018-09-02T01:43:23.996Z,17.06
2018-09-02T01:45:53.897Z,17.05
2018-09-02T01:48:23.774Z,17.03
2018-09-02T01:50:53.812Z,17.06
2018-09-02T01:53:23.652Z,17.03
2018-09-02T01:55:53.868Z,17.04
2018-09-02T01:58:23.798Z,17.05
2018-09-02T02:00:53.865Z,17.06
2018-09-02T02:03:24.224Z,17.05
2018-09-02T02:05:53.972Z,17.06
2018-09-02T02:08:23.836Z,17.04
2018-09-02T02:10:53.873Z,17.04
2018-09-02T02:13:23.753Z,17.03
2018-09-02T02:15:53.816Z,17.02
2018-09-02T02:18:23.771Z,16.97
2018-09-02T02:20:53.757Z,16.96
2018-09-02T02:23:24.372Z,15.60
2018-09-02T02:25:54.076Z,16.94
2018-09-02T02:28:23.970Z,16.90
2018-09-02T02:30:53.792Z,16.89
2018-09-02T02:33:23.802Z,16.87
2018-09-02T02:35:54.565Z,16.86
2018-09-02T02:38:24.315Z,16.88
2018-09-02T02:40:54.161Z,16.89
2018-09-02T02:43:23.957Z,16.88
2018-09-02T02:45:53.764Z,16.87
2018-09-02T02:48:23.792Z,16.85
2018-09-02T02:50:54.007Z,16.83
2018-09-02T02:53:23.817Z,16.74
2018-09-02T02:55:53.967Z,16.73
2018-09-02T02:58:23.713Z,16.74
2018-09-02T03:00:53.880Z,16.71
2018-09-02T03:03:23.666Z,16.70
2018-09-02T03:05:53.785Z,16.71
2018-09-02T03:08:23.699Z,16.72
2018-09-02T03:10:53.720Z,16.71
2018-09-02T03:13:24.026Z,16.72
2018-09-02T03:15:53.807Z,16.73
2018-09-02T03:18:23.801Z,16.61
2018-09-02T03:20:53.996Z,16.68
2018-09-02T03:23:23.725Z,16.67
2018-09-02T03:25:53.766Z,16.66
2018-09-02T03:28:23.745Z,16.61
2018-09-02T03:30:53.793Z,16.54
2018-09-02T03:33:23.952Z,16.52
2018-09-02T03:35:53.979Z,16.44
2018-09-02T03:38:23.797Z,16.52
2018-09-02T03:40:53.769Z,16.49
2018-09-02T03:43:23.498Z,16.49
2018-09-02T03:45:53.361Z,16.47
2018-09-02T03:48:23.159Z,16.49
2018-09-02T03:50:53.455Z,16.48
2018-09-02T03:53:23.258Z,16.47
2018-09-02T03:55:53.085Z,16.48
2018-09-02T03:58:23.228Z,16.48
2018-09-02T04:00:52.941Z,16.49
2018-09-02T04:03:23.398Z,16.44
2018-09-02T04:05:53.269Z,16.41
2018-09-02T04:08:23.448Z,16.37
2018-09-02T04:10:53.650Z,16.36
2018-09-02T04:13:23.393Z,16.37
2018-09-02T04:15:53.837Z,16.36
2018-09-02T04:18:24.716Z,16.36
2018-09-02T04:20:55.428Z,16.33
2018-09-02T04:23:32.813Z,16.35
2018-09-02T04:26:02.545Z,16.36
2018-09-02T04:28:33.012Z,16.38
2018-09-02T04:31:03.352Z,16.38
2018-09-02T04:33:33.843Z,16.38
2018-09-02T04:36:03.832Z,16.39
2018-09-02T04:38:33.611Z,16.38
2018-09-02T04:41:03.517Z,16.38
2018-09-02T04:43:34.732Z,16.39
2018-09-02T04:46:05.786Z,16.41
2018-09-02T04:48:36.770Z,16.44
2018-09-02T04:51:08.168Z,16.45
2018-09-02T04:53:38.811Z,16.47
2018-09-02T04:56:09.660Z,16.48
2018-09-02T04:58:40.569Z,16.50
2018-09-02T05:01:11.044Z,16.49
2018-09-02T05:03:42.465Z,16.35
2018-09-02T05:06:13.524Z,16.54
2018-09-02T05:08:44.961Z,16.55
2018-09-02T05:11:16.252Z,16.55
2018-09-02T05:13:46.738Z,16.54
2018-09-02T05:29:49.180Z,16.73
2018-09-02T05:32:18.886Z,16.68
2018-09-02T05:34:48.658Z,16.71
2018-09-02T05:37:18.593Z,16.74
2018-09-02T05:39:48.393Z,16.79
2018-09-02T05:42:18.807Z,16.81
2018-09-02T05:44:48.517Z,16.84
2018-09-02T05:47:18.541Z,16.90
2018-09-02T05:49:48.426Z,16.93
2018-09-02T05:52:25.410Z,16.95
2018-09-02T05:54:55.504Z,16.99
2018-09-02T05:57:25.567Z,17.04
2018-09-02T05:59:55.590Z,17.07
2018-09-02T06:02:25.605Z,17.12
2018-09-02T06:04:55.381Z,17.17
2018-09-02T06:07:25.392Z,17.25
2018-09-02T06:09:55.580Z,17.32
2018-09-02T06:12:25.490Z,17.41
2018-09-02T06:14:55.490Z,17.48
2018-09-02T06:17:25.723Z,17.58
2018-09-02T06:19:55.771Z,17.69
2018-09-02T06:22:25.545Z,17.76
2018-09-02T06:24:55.484Z,17.82
2018-09-02T06:27:25.623Z,17.92
2018-09-02T06:29:55.515Z,18.00
2018-09-02T06:32:25.704Z,17.95
2018-09-02T06:34:55.441Z,18.01
2018-09-02T06:37:25.457Z,18.17
2018-09-02T06:39:55.761Z,18.32
2018-09-02T06:42:25.452Z,18.44
2018-09-02T06:44:55.575Z,18.58
2018-09-02T06:47:25.412Z,18.71
2018-09-02T06:49:55.454Z,18.83
2018-09-02T06:52:25.476Z,18.91
2018-09-02T06:54:55.348Z,18.90
2018-09-02T06:57:25.526Z,18.88
2018-09-02T06:59:55.548Z,18.90
2018-09-02T07:02:25.457Z,18.87
2018-09-02T07:04:55.468Z,18.88
2018-09-02T07:07:25.411Z,18.84
2018-09-02T07:09:55.623Z,18.84
2018-09-02T07:12:25.569Z,18.83
2018-09-02T07:14:55.432Z,18.83
2018-09-02T07:17:25.672Z,18.80
2018-09-02T07:19:55.444Z,18.79
2018-09-02T07:22:26.349Z,18.80
2018-09-02T07:24:59.531Z,18.87
2018-09-02T07:27:29.701Z,19.00
2018-09-02T07:29:59.443Z,19.09
2018-09-02T07:32:29.204Z,19.17
2018-09-02T07:34:59.242Z,19.25
2018-09-02T07:37:29.266Z,19.21
2018-09-02T07:39:59.192Z,19.14
2018-09-02T07:42:29.105Z,19.07
2018-09-02T07:44:58.978Z,18.98
2018-09-02T07:47:29.061Z,18.93
2018-09-02T07:49:58.808Z,18.93
2018-09-02T07:52:28.989Z,18.93
2018-09-02T07:54:58.725Z,18.93
2018-09-02T07:57:28.596Z,18.97
2018-09-02T07:59:58.553Z,18.99
2018-09-02T08:02:28.452Z,19.01
2018-09-02T08:04:58.612Z,19.09
2018-09-02T08:07:28.472Z,19.12
2018-09-02T08:09:58.421Z,19.20
2018-09-02T08:12:28.508Z,19.28
2018-09-02T08:14:58.906Z,19.33
2018-09-02T08:17:28.803Z,19.38
2018-09-02T08:19:58.774Z,19.44
2018-09-02T08:22:29.615Z,19.52
2018-09-02T08:24:59.437Z,19.58
2018-09-02T08:27:29.412Z,19.65
2018-09-02T08:29:59.372Z,19.75
2018-09-02T08:32:29.088Z,19.83
2018-09-02T08:34:58.854Z,19.91
2018-09-02T08:37:28.557Z,19.98
2018-09-02T08:39:58.551Z,20.03
2018-09-02T08:42:28.461Z,20.06
2018-09-02T08:44:58.443Z,20.08
2018-09-02T08:47:28.733Z,20.10
2018-09-02T08:49:58.500Z,20.13
2018-09-02T08:52:28.442Z,20.22
2018-09-02T08:54:58.512Z,20.38
2018-09-02T08:57:31.785Z,20.58
2018-09-02T09:00:02.643Z,20.71
2018-09-02T09:02:32.568Z,20.94
2018-09-02T09:05:02.476Z,21.18
2018-09-02T09:07:33.404Z,21.42
2018-09-02T09:10:03.821Z,21.62
2018-09-02T09:12:34.101Z,21.62
2018-09-02T09:15:03.918Z,21.40
2018-09-02T09:17:33.815Z,21.35
2018-09-02T09:20:03.703Z,21.48
2018-09-02T09:22:33.881Z,21.44
2018-09-02T09:25:03.913Z,21.59
2018-09-02T09:27:33.831Z,21.47
2018-09-02T09:30:03.678Z,21.64
2018-09-02T09:32:33.792Z,21.84
2018-09-02T09:35:03.566Z,21.81
2018-09-02T09:37:33.693Z,21.86
2018-09-02T09:40:03.536Z,21.88
2018-09-02T09:42:33.391Z,21.78
2018-09-02T09:45:03.208Z,21.82
2018-09-02T09:47:32.972Z,21.90
2018-09-02T09:50:03.061Z,22.09
2018-09-02T09:52:32.909Z,22.18
2018-09-02T09:55:02.714Z,22.15
2018-09-02T09:57:32.519Z,22.11
2018-09-02T10:00:02.460Z,22.09
2018-09-02T10:02:32.255Z,22.18
2018-09-02T10:05:02.381Z,22.15
2018-09-02T10:07:32.391Z,22.15
2018-09-02T10:10:02.342Z,22.20
2018-09-02T10:12:33.391Z,22.27
2018-09-02T10:15:04.627Z,22.22
2018-09-02T10:17:35.749Z,22.02
2018-09-02T10:20:06.693Z,22.24
2018-09-02T10:22:37.926Z,22.22
2018-09-02T10:25:08.479Z,22.24
2018-09-02T10:27:39.521Z,22.37
2018-09-02T10:30:13.182Z,22.52
2018-09-02T10:32:43.257Z,22.70
2018-09-02T10:35:13.095Z,22.89
2018-09-02T10:37:43.576Z,22.90
2018-09-02T10:40:14.385Z,22.98
2018-09-02T10:42:56.160Z,23.19
2018-09-02T10:45:34.853Z,23.38
2018-09-02T10:48:04.701Z,23.38
2018-09-02T10:50:35.098Z,23.48
2018-09-02T10:53:04.804Z,23.46
2018-09-02T10:55:34.733Z,23.43
2018-09-02T10:58:05.010Z,23.39
2018-09-02T11:00:38.887Z,23.47
2018-09-02T11:03:09.115Z,23.69
2018-09-02T11:05:39.424Z,23.82
2018-09-02T11:08:09.317Z,23.84
2018-09-02T11:10:38.998Z,23.72
2018-09-02T11:13:09.679Z,23.72
2018-09-02T11:15:40.248Z,23.89
2018-09-02T11:18:10.126Z,23.97
2018-09-02T11:20:40.204Z,23.97
2018-09-02T11:23:09.893Z,24.03
2018-09-02T11:25:40.092Z,24.10
2018-09-02T11:28:10.064Z,24.12
2018-09-02T11:30:39.969Z,24.06
2018-09-02T11:33:09.879Z,24.15
2018-09-02T11:35:40.105Z,24.20
2018-09-02T11:38:09.922Z,24.38
2018-09-02T11:40:40.192Z,24.67
2018-09-02T11:43:10.136Z,24.94
2018-09-02T11:45:40.812Z,25.26
2018-09-02T11:48:11.596Z,25.31
2018-09-02T11:50:42.308Z,25.45
2018-09-02T11:53:13.734Z,25.66
2018-09-02T11:55:44.342Z,25.79
2018-09-02T11:58:15.950Z,25.99
2018-09-02T12:00:47.002Z,26.01
2018-09-02T12:03:17.473Z,25.98
2018-09-02T12:05:48.605Z,26.01
2018-09-02T12:08:20.313Z,26.30
2018-09-02T12:10:50.389Z,26.50
2018-09-02T12:13:21.200Z,26.69
2018-09-02T12:15:52.917Z,26.85
2018-09-02T12:18:23.680Z,27.04
2018-09-02T12:20:54.660Z,27.26
2018-09-02T12:23:24.409Z,27.54
2018-09-02T12:25:55.540Z,27.93
2018-09-02T12:28:26.304Z,27.88
2018-09-02T12:30:57.819Z,27.87
2018-09-02T12:33:28.434Z,27.92
2018-09-02T12:35:59.575Z,27.97
2018-09-02T12:38:29.357Z,28.14
2018-09-02T12:41:00.740Z,28.27
2018-09-02T12:43:31.447Z,28.14
2018-09-02T12:46:02.344Z,28.11
2018-09-02T12:48:33.429Z,28.34
2018-09-02T12:51:04.375Z,28.48
2018-09-02T12:53:35.472Z,28.23
2018-09-02T12:56:06.740Z,28.48
2018-09-02T12:58:37.477Z,28.74
2018-09-02T13:01:08.900Z,28.92
2018-09-02T13:03:39.719Z,28.95
2018-09-02T13:06:12.058Z,29.16
2018-09-02T13:08:41.780Z,29.36
2018-09-02T13:11:12.913Z,29.43
2018-09-02T13:13:43.469Z,29.28
2018-09-02T13:16:14.350Z,29.75
2018-09-02T13:18:45.532Z,30.10
2018-09-02T13:21:16.325Z,30.19
2018-09-02T13:23:47.469Z,30.31
2018-09-02T13:26:18.448Z,30.57
2018-09-02T13:29:52.354Z,30.69
2018-09-02T13:32:22.116Z,30.54
2018-09-02T13:34:52.092Z,30.58
2018-09-02T13:37:21.872Z,30.54
2018-09-02T13:39:52.342Z,30.52
2018-09-02T13:42:22.551Z,30.38
2018-09-02T13:44:52.481Z,30.42
2018-09-02T13:47:25.238Z,30.40
2018-09-02T13:49:56.018Z,30.06
2018-09-02T13:52:26.127Z,30.26
2018-09-02T13:54:55.989Z,30.43
2018-09-02T13:57:25.784Z,30.63
2018-09-02T13:59:55.656Z,30.59
2018-09-02T14:02:25.562Z,30.76
2018-09-02T14:04:56.173Z,30.77
2018-09-02T14:07:25.921Z,30.65
2018-09-02T14:09:55.795Z,30.63
2018-09-02T14:12:26.375Z,30.66
2018-09-02T14:14:56.560Z,30.60
2018-09-02T14:17:26.429Z,30.31
2018-09-02T14:19:56.824Z,29.88
2018-09-02T14:22:26.614Z,29.52
2018-09-02T14:24:56.808Z,29.37
2018-09-02T14:27:26.564Z,29.22
2018-09-02T14:29:56.593Z,29.08
2018-09-02T14:32:26.590Z,28.97
2018-09-02T14:34:59.464Z,29.10
2018-09-02T14:37:29.707Z,29.21
2018-09-02T14:39:59.680Z,29.49
2018-09-02T14:42:30.186Z,29.31
2018-09-02T14:45:00.419Z,29.06
2018-09-02T14:47:30.405Z,29.03
2018-09-02T14:50:00.567Z,28.57
2018-09-02T14:52:30.521Z,28.43
2018-09-02T14:55:00.716Z,28.18
2018-09-02T14:57:30.960Z,27.94
2018-09-02T15:00:00.703Z,28.05
2018-09-02T15:02:30.729Z,28.09
2018-09-02T15:05:00.659Z,28.02
2018-09-02T15:07:30.422Z,27.91
2018-09-02T15:10:07.886Z,27.76
2018-09-02T15:12:37.618Z,27.59
2018-09-02T15:15:07.767Z,27.40
2018-09-02T15:17:37.620Z,27.38
2018-09-02T15:20:07.965Z,27.34
2018-09-02T15:22:37.777Z,27.23
2018-09-02T15:25:07.625Z,27.24
2018-09-02T15:27:37.613Z,26.98
2018-09-02T15:30:08.146Z,26.86
2018-09-02T15:32:38.039Z,26.87
2018-09-02T15:35:07.896Z,26.92
2018-09-02T15:37:37.680Z,26.94
2018-09-02T15:40:07.914Z,26.69
2018-09-02T15:42:37.711Z,26.58
2018-09-02T15:45:07.920Z,26.66
2018-09-02T15:47:37.891Z,26.69
2018-09-02T15:50:08.769Z,26.62
2018-09-02T15:52:38.782Z,26.73
2018-09-02T15:55:08.516Z,26.72
2018-09-02T15:57:39.070Z,26.65
2018-09-02T16:00:10.176Z,26.65
2018-09-02T16:02:40.119Z,26.61
2018-09-02T16:05:10.222Z,26.60
2018-09-02T16:07:41.214Z,26.67
2018-09-02T16:10:10.730Z,26.70
2018-09-02T16:12:40.542Z,26.47
2018-09-02T16:15:10.631Z,26.63
2018-09-02T16:17:40.704Z,26.59
2018-09-02T16:20:10.559Z,26.47
2018-09-02T16:22:41.299Z,26.40
2018-09-02T16:25:11.384Z,26.28
2018-09-02T16:27:41.555Z,26.28
2018-09-02T16:30:11.442Z,26.18
2018-09-02T16:32:41.373Z,26.12
2018-09-02T16:35:11.345Z,26.18
2018-09-02T16:37:41.226Z,26.20
2018-09-02T16:40:11.102Z,26.09
2018-09-02T16:42:41.148Z,26.07
2018-09-02T16:45:11.154Z,26.12
2018-09-02T16:47:40.930Z,26.11
2018-09-02T16:50:11.254Z,26.02
2018-09-02T16:52:41.063Z,26.00
2018-09-02T16:55:10.923Z,26.05
2018-09-02T16:57:41.601Z,26.12
2018-09-02T17:00:12.649Z,26.23
2018-09-02T17:02:43.669Z,26.12
2018-09-02T17:05:18.994Z,25.86
2018-09-02T17:07:49.456Z,25.57
2018-09-02T17:10:19.349Z,25.56
2018-09-02T17:12:49.276Z,25.50
2018-09-02T17:15:19.512Z,25.42
2018-09-02T17:17:49.352Z,25.42
2018-09-02T17:20:25.195Z,25.43
2018-09-02T17:22:59.118Z,25.46
2018-09-02T17:25:29.553Z,25.45
2018-09-02T17:27:59.322Z,25.15
2018-09-02T17:30:29.164Z,25.18
2018-09-02T17:32:59.159Z,25.26
2018-09-02T17:35:28.904Z,25.25
2018-09-02T17:37:59.013Z,25.19
2018-09-02T17:40:29.262Z,25.17
2018-09-02T17:42:59.057Z,25.20
2018-09-02T17:45:29.577Z,25.21
2018-09-02T17:48:00.360Z,25.22
2018-09-02T17:50:31.369Z,25.21
2018-09-02T17:53:02.121Z,25.20
2018-09-02T17:55:33.719Z,25.18
2018-09-02T17:58:04.522Z,25.02
2018-09-02T18:00:47.092Z,25.12
2018-09-02T18:03:16.855Z,25.10
2018-09-02T18:05:47.663Z,24.92
2018-09-02T18:08:17.621Z,24.78
2018-09-02T18:10:47.679Z,24.76
2018-09-02T18:13:18.025Z,24.67
2018-09-02T18:15:47.890Z,24.65
2018-09-02T18:18:18.278Z,24.67
2018-09-02T18:20:48.132Z,24.72
2018-09-02T18:23:17.898Z,24.72
2018-09-02T18:25:47.998Z,24.72
2018-09-02T18:28:21.017Z,24.73
2018-09-02T18:30:50.869Z,24.64
2018-09-02T18:33:20.607Z,24.65
2018-09-02T18:35:50.630Z,24.55
2018-09-02T18:38:20.470Z,24.49
2018-09-02T18:40:51.465Z,24.52
2018-09-02T18:43:22.216Z,24.46
2018-09-02T18:45:53.909Z,24.50
2018-09-02T18:48:25.972Z,24.49
2018-09-02T18:50:56.531Z,24.50
2018-09-02T18:53:26.230Z,24.48
2018-09-02T18:58:59.544Z,24.47
2018-09-02T19:01:50.893Z,24.41
2018-09-02T19:04:20.758Z,24.11
2018-09-02T19:06:50.729Z,24.07
2018-09-02T19:09:20.708Z,24.04
2018-09-02T19:11:50.461Z,23.75
2018-09-02T19:14:20.789Z,23.60
2018-09-02T19:16:50.671Z,23.60
2018-09-02T19:19:28.049Z,23.54
2018-09-02T19:21:58.157Z,23.63
2018-09-02T19:24:28.257Z,23.53
2018-09-02T19:26:58.192Z,23.49
2018-09-02T19:29:28.392Z,23.53
2018-09-02T19:31:58.388Z,23.52
2018-09-02T19:34:28.634Z,23.50
2018-09-02T19:36:58.966Z,23.50
2018-09-02T19:39:28.709Z,23.56
2018-09-02T19:41:58.635Z,23.61
2018-09-02T19:44:28.441Z,23.63
2018-09-02T19:46:58.449Z,23.64
2018-09-02T19:49:28.737Z,23.64
2018-09-02T19:51:58.478Z,23.64
2018-09-02T19:54:28.631Z,23.67
2018-09-02T19:56:58.912Z,23.66
2018-09-02T19:59:29.338Z,23.64
2018-09-02T20:02:00.361Z,23.64
2018-09-02T20:04:30.935Z,23.63
2018-09-02T20:07:01.956Z,23.60
2018-09-02T20:09:32.534Z,23.60
2018-09-02T20:12:04.085Z,23.59
2018-09-02T20:14:33.843Z,23.58
2018-09-02T20:17:04.015Z,23.57
2018-09-02T20:19:33.851Z,23.57
2018-09-02T20:22:05.135Z,23.55
2018-09-02T20:24:35.162Z,23.53
2018-09-02T20:27:05.437Z,23.52
2018-09-02T20:29:35.826Z,23.50
2018-09-02T20:32:06.413Z,23.48
2018-09-02T20:34:36.966Z,23.44
2018-09-02T20:37:07.064Z,23.43
2018-09-02T20:39:36.927Z,23.41
2018-09-02T20:42:06.895Z,23.41
2018-09-02T20:44:36.718Z,23.36
2018-09-02T20:47:06.738Z,23.33
2018-09-02T20:49:36.630Z,23.27
2018-09-02T20:52:07.118Z,23.24
2018-09-02T20:54:37.242Z,23.22
2018-09-02T20:57:07.555Z,23.20
2018-09-02T20:59:37.828Z,23.15
2018-09-02T21:02:08.084Z,23.13
2018-09-02T21:04:38.194Z,23.12
2018-09-02T21:07:08.297Z,23.08
2018-09-02T21:09:39.600Z,23.08
2018-09-02T21:12:10.020Z,23.06
2018-09-02T21:14:40.087Z,23.06
2018-09-02T21:17:10.108Z,23.04
2018-09-02T21:19:39.985Z,23.02
2018-09-02T21:22:09.889Z,22.98
2018-09-02T21:24:39.928Z,22.96
2018-09-02T21:27:10.029Z,22.93
2018-09-02T21:29:40.138Z,22.90
2018-09-02T21:32:09.935Z,22.87
2018-09-02T21:34:40.223Z,22.84
2018-09-02T21:37:10.511Z,22.80
2018-09-02T21:39:40.467Z,22.77
2018-09-02T21:42:10.454Z,22.76
2018-09-02T21:44:40.417Z,22.69
2018-09-02T21:47:10.136Z,22.65
2018-09-02T21:49:40.065Z,22.64
2018-09-02T21:52:10.348Z,22.61
2018-09-02T21:54:47.664Z,22.61
2018-09-02T21:57:17.533Z,22.58
2018-09-02T21:59:47.845Z,22.57
2018-09-02T22:02:18.234Z,22.53
2018-09-02T22:04:48.721Z,22.51
2018-09-02T22:07:19.521Z,22.49
2018-09-02T22:09:49.682Z,22.44
2018-09-02T22:12:19.512Z,22.42
2018-09-02T22:14:49.657Z,22.36
2018-09-02T22:17:19.493Z,22.30
2018-09-02T22:19:49.253Z,22.27
2018-09-02T22:22:19.510Z,22.22
2018-09-02T22:24:49.337Z,22.12
2018-09-02T22:27:19.232Z,22.07
2018-09-02T22:29:50.682Z,22.11
2018-09-02T22:32:21.597Z,22.09
2018-09-02T22:34:53.204Z,22.07
2018-09-02T22:37:23.413Z,22.10
2018-09-02T22:39:54.479Z,22.12
2018-09-02T22:42:25.252Z,22.11
2018-09-02T22:44:56.745Z,22.06
2018-09-02T22:47:27.335Z,22.06
2018-09-02T22:49:58.409Z,22.07
2018-09-02T22:52:29.465Z,22.07
2018-09-02T22:55:00.377Z,22.06
2018-09-02T22:57:31.340Z,22.01
2018-09-02T23:00:02.186Z,21.98
2018-09-02T23:02:33.832Z,21.82
2018-09-02T23:05:04.467Z,21.98
2018-09-02T23:07:35.465Z,21.97
2018-09-02T23:10:06.414Z,21.94
2018-09-02T23:12:37.480Z,21.92
2018-09-02T23:15:08.256Z,21.88
2018-09-02T23:17:39.727Z,21.84
2018-09-02T23:20:10.619Z,21.81
2018-09-02T23:22:41.560Z,21.79
2018-09-02T23:25:13.493Z,21.74
2018-09-02T23:27:43.514Z,21.73
2018-09-02T23:30:14.381Z,21.72
2018-09-02T23:32:45.486Z,21.69
2018-09-02T23:35:16.270Z,21.64
2018-09-02T23:37:47.820Z,21.64
2018-09-02T23:40:18.416Z,21.61
2018-09-02T23:42:49.649Z,21.54
2018-09-02T23:45:20.422Z,21.57
2018-09-02T23:47:51.447Z,21.55
2018-09-02T23:50:22.266Z,21.52
2018-09-02T23:52:53.937Z,21.49
2018-09-02T23:55:24.457Z,21.48
2018-09-02T23:57:55.694Z,21.46
